Barnoldswick, United Kingdom
Current Conditions -  °F | °C
As of 9:50 PM on Friday 28 Nov 2014 (Local Time) from EGNM Reporting Station
Light Rain Light Rain  
Wind Chill: 42°   Ceiling: 200
Heat Index: 46°   Visibility: 0.18mi
Dew Point: 46°   Wind: 9mph
Humidity: 100%   Direction: 80°E
Pressure: 29.83"   Gusts: NA
Location:  53.92°N, 2.19°W
Report Text: EGNM 282150Z 08008KT 050V120 0300 R32/0450 -RADZ FG SCT001 BKN002 08/08 Q1010
Loading
Personal Weather Stations






























Interactive Weather Map New forecast layout! Learn more

10-Day Weather Forecast

Advertisements
Track Severe Weather on mobile